Meteo Giornale » Osservazioni meteo Italia » Pisa-S Giusto

ore: 14:45 - Osservazioni Meteo Pisa-S Giusto
Lat. 43° 41' N Lon. 10° 23' E Alt. 2 metri s.l.m.

poco_nuvoloso Europe/Rome

25 °C

Poco Nuvoloso

Temp. 24 Ore

12 °C

25 °C

Nord-Ovest

14.8 Km/h

Dew point 12 °C

Umidità 44 %

Visibilità  10 Km

Il sole sorge alle ore 05:37

Il sole tramonta alle ore 20:55

Data e Ora Cielo e Fenomeni T °C DP °C Um. % Pres. hPa Vis. km Vento km/h
Oggi h: 14:45 poco_nuvoloso Poco Nuvoloso 25 12 44 1016 10 NO 14.8
Oggi h: 14:15 poco_nuvoloso Poco Nuvoloso 25 13 47 1017 10 NO 16.7
Oggi h: 13:45 nuvoloso Nuvoloso 24 14 53 1017 10 NO 14.8
Oggi h: 13:15 poco_nuvoloso Poco Nuvoloso 23 15 60 1017 10 N/NO 9.3
Oggi h: 12:45 poco_nuvoloso Poco Nuvoloso 23 14 56 1017 10 N/NO 7.4
Oggi h: 12:15 poco_nuvoloso Poco Nuvoloso 23 11 46 1017 10 N/NO 9.3
Oggi h: 11:15 sereno Sereno 21 13 60 1017 10 N 5.5
Oggi h: 10:45 sereno Sereno 20 13 64 1017 10 N 3.7
Oggi h: 10:15 sereno Sereno 20 15 72 1017 10 N 3.7
Oggi h: 09:45 sereno Sereno 20 15 72 1017 10 N 5.5
Oggi h: 09:15 sereno Sereno 17 14 82 1017 10 N 5.5
Oggi h: 08:15 sereno Sereno 15 14 93 1016 10 N 5.5
Oggi h: 07:45 sereno Sereno 14 14 100 1016 10 E/SE 9.3
Oggi h: 07:15 sereno Sereno 13 12 93 1016 10 SE 7.4
Oggi h: 06:45 sereno Sereno 12 12 100 1016 10 E/SE 9.3
Oggi h: 05:45 sereno Sereno 13 13 100 1016 10 E/SE 7.4
Oggi h: 05:15 sereno Sereno 13 13 100 1016 10 N 5.5
Oggi h: 04:45 sereno Sereno 13 13 100 1016 10 N 5.5
Oggi h: 04:15 sereno Sereno 13 13 100 1016 10 N 5.5
Oggi h: 03:45 sereno Sereno 13 13 100 1016 10 E/SE 7.4
Oggi h: 03:15 sereno Sereno 13 13 100 1016 10 N 5.5
Oggi h: 02:45 sereno Sereno 13 13 100 1016 10 N 5.5
Oggi h: 02:15 sereno Sereno 13 13 100 1016 10 N 3.7
Oggi h: 01:45 sereno Sereno 14 14 100 1016 10 N 3.7
Oggi h: 01:15 sereno Sereno 14 13 93 1015 10 N 5.5
Oggi h: 00:45 sereno Sereno 14 13 93 1015 10 N 3.7
Oggi h: 00:15 sereno Sereno 15 14 93 1015 10 N 3.7
Ieri h: 23:45 sereno Sereno 16 14 87 1015 10 N 3.7
Ieri h: 22:45 sereno Sereno 17 14 82 1015 10 N 3.7
Ieri h: 22:15 sereno Sereno 18 15 82 1015 10 N 5.5
Ieri h: 21:45 sereno Sereno 18 15 82 1014 10 O/NO 7.4
Ieri h: 20:45 sereno Sereno 19 15 77 1014 10 O/NO 9.3
Ieri h: 20:15 sereno Sereno 20 15 72 1014 10 O/NO 13
Ieri h: 19:45 sereno Sereno 21 14 64 1014 10 O/NO 16.7
Ieri h: 19:15 sereno Sereno 20 13 64 1014 10 O 18.5
Ieri h: 18:45 sereno Sereno 21 13 60 1014 10 O/NO 18.5
Ieri h: 17:45 sereno Sereno 21 12 56 1015 10 O/NO 18.5
Ieri h: 16:45 sereno Sereno 21 13 60 1015 10 O/SO 18.5
Ieri h: 16:15 sereno Sereno 21 13 60 1015 10 O 20.3
Ieri h: 15:45 sereno Sereno 21 12 56 1015 10 O 20.3